SVBS/MYC METAR and TAF weather

Enter ICAO airport designator
Station Type Date Time Source
SVBS METAR 2023/01/21 16:03 UTC NOAA

SVBS 211603Z AUTO 23005KT NCD 28/16 Q1019


Station Type Date Time Source
SVBS Decoded METAR 2023/01/21 16:03 UTC NOAA

Maracay-B. A. Sucre, Venezuela (SVBS) 10-15N 067-39W 437M
Jan 21, 2023 - 11:03 AM EST / 2023.01.21 1603 UTC
Wind: from the SW (230 degrees) at 6 MPH (5 KT):0
Temperature: 82 F (28 C)
Dew Point: 60 F (16 C)
Relative Humidity: 48%
Pressure (altimeter): 30.09 in. Hg (1019 hPa)
ob: SVBS 211603Z AUTO 23005KT NCD 28/16 Q1019
cycle: 16

Station Type Date Time Source
SVBS TAF 2018/01/16 06:46 UTC NOAA

TAF SVBS 160400Z 1606/1706 00000KT 9999 FEW010 SCT070 TX33/18Z TN25/08Z
FM160800 00000KT 9999 FEW010

Example: see airport list